Time;durP1;ratioP1;P1;durP2;ratioP2;P2;SDS_P1;SDS_P2;PMS_P1;PMS_P2;Temp;Humidity;BMP_temperature;BMP_pressure;BME280_temperature;BME280_humidity;BME280_pressure;Samples;Min_cycle;Max_cycle;Signal;HPM_P1;HPM_P2
2022/02/15 00:02:01;;;;;;;0.43;0.10;;;25.30;38.50;;;;;;5075427;28;20512;-53
2022/02/15 00:04:28;;;;;;;0.15;0.10;;;25.30;38.50;;;;;;5076672;28;20040;-51
2022/02/15 00:06:55;;;;;;;0.30;0.30;;;25.30;38.50;;;;;;5080337;28;20032;-51
2022/02/15 00:09:22;;;;;;;2.55;0.10;;;25.20;38.50;;;;;;5077674;28;20044;-50
2022/02/15 00:11:49;;;;;;;0.45;0.20;;;25.20;38.50;;;;;;5081856;28;20044;-53
2022/02/15 00:14:17;;;;;;;0.32;0.10;;;25.20;38.60;;;;;;5082401;28;20058;-53
2022/02/15 00:16:46;;;;;;;0.50;0.10;;;25.10;38.50;;;;;;5078383;28;20525;-55
2022/02/15 00:19:13;;;;;;;0.82;0.10;;;25.10;38.60;;;;;;5078294;28;20048;-54
2022/02/15 00:21:41;;;;;;;0.57;0.10;;;25.10;38.60;;;;;;5077038;28;20080;-52
2022/02/15 00:24:08;;;;;;;1.98;0.73;;;25.00;38.70;;;;;;5076810;28;20054;-55
2022/02/15 00:26:35;;;;;;;1.00;0.10;;;25.00;38.80;;;;;;5084360;28;20040;-51
2022/02/15 00:29:02;;;;;;;0.57;0.10;;;25.00;38.90;;;;;;5082857;28;20294;-53
2022/02/15 00:31:29;;;;;;;0.50;0.10;;;25.00;38.90;;;;;;5057857;28;20044;-57
2022/02/15 00:33:57;;;;;;;0.32;0.10;;;25.00;39.00;;;;;;5069260;28;20686;-51
2022/02/15 00:36:25;;;;;;;5.50;0.10;;;24.90;39.00;;;;;;5078860;28;20072;-55
2022/02/15 00:38:52;;;;;;;0.30;0.10;;;25.00;39.10;;;;;;5079499;28;20075;-55
2022/02/15 00:41:19;;;;;;;0.52;0.10;;;25.00;39.10;;;;;;5075310;28;20797;-54
2022/02/15 00:43:46;;;;;;;0.20;0.10;;;25.00;39.10;;;;;;5071845;28;20036;-53
2022/02/15 00:46:13;;;;;;;2.47;0.10;;;25.00;39.10;;;;;;5074546;28;20039;-52
2022/02/15 00:48:40;;;;;;;0.20;0.10;;;25.00;39.10;;;;;;5055811;28;20152;-58
2022/02/15 00:51:08;;;;;;;1.20;0.10;;;25.00;39.00;;;;;;5078244;28;20059;-53
2022/02/15 00:53:35;;;;;;;0.32;0.30;;;25.00;39.00;;;;;;5073573;28;20079;-54
2022/02/15 00:56:04;;;;;;;1.75;0.25;;;25.00;39.00;;;;;;5058998;28;20036;-50
2022/02/15 00:58:31;;;;;;;0.82;0.47;;;25.00;39.00;;;;;;5074582;28;20036;-53
2022/02/15 01:00:58;;;;;;;0.65;0.10;;;25.00;39.00;;;;;;5068096;28;20618;-53
2022/02/15 01:03:25;;;;;;;1.00;0.10;;;25.00;39.00;;;;;;5057991;28;20040;-53
2022/02/15 01:05:52;;;;;;;3.83;0.10;;;25.00;39.00;;;;;;5072315;28;20064;-49
2022/02/15 01:08:20;;;;;;;1.65;0.10;;;25.00;39.00;;;;;;5052084;28;20044;-50
2022/02/15 01:10:48;;;;;;;0.22;0.10;;;25.00;39.00;;;;;;5081532;28;20048;-53
2022/02/15 01:13:16;;;;;;;0.40;0.20;;;25.10;39.00;;;;;;5077653;28;20123;-51
2022/02/15 01:15:44;;;;;;;0.47;0.10;;;25.00;39.00;;;;;;5056102;28;20041;-49
2022/02/15 01:18:11;;;;;;;0.60;0.00;;;25.10;39.00;;;;;;5067003;28;20156;-52
2022/02/15 01:20:38;;;;;;;1.00;0.30;;;25.10;39.00;;;;;;5076807;28;20046;-54
2022/02/15 01:23:05;;;;;;;1.35;0.10;;;25.10;39.00;;;;;;5071855;28;20098;-52
2022/02/15 01:25:34;;;;;;;2.80;0.45;;;25.00;39.00;;;;;;5072819;28;20036;-54
2022/02/15 01:28:00;;;;;;;0.38;0.10;;;25.10;39.00;;;;;;5074691;28;20045;-53
2022/02/15 01:30:27;;;;;;;0.15;0.10;;;25.10;39.00;;;;;;5084299;28;20043;-54
2022/02/15 01:32:54;;;;;;;3.10;0.10;;;25.10;38.90;;;;;;5077367;28;20128;-54
2022/02/15 01:35:22;;;;;;;0.10;0.10;;;25.10;38.90;;;;;;5062923;28;20048;-56
2022/02/15 01:37:49;;;;;;;1.90;0.10;;;25.10;38.90;;;;;;5064029;28;20090;-48
2022/02/15 01:40:17;;;;;;;0.20;0.10;;;25.10;38.80;;;;;;5064591;28;20055;-51
2022/02/15 01:42:45;;;;;;;0.88;0.22;;;25.10;38.80;;;;;;5082396;28;20044;-53
2022/02/15 01:45:15;;;;;;;0.28;0.28;;;25.10;38.80;;;;;;5071394;28;20117;-54
2022/02/15 01:47:42;;;;;;;0.95;0.10;;;25.10;38.80;;;;;;5058326;28;20045;-56
2022/02/15 01:50:10;;;;;;;2.03;0.22;;;25.10;38.80;;;;;;5063461;28;20102;-55
2022/02/15 01:52:37;;;;;;;1.35;0.28;;;25.10;38.80;;;;;;5073321;28;20036;-56
2022/02/15 01:55:06;;;;;;;0.52;0.40;;;25.10;38.70;;;;;;5051815;28;20047;-51
2022/02/15 01:57:34;;;;;;;1.13;0.73;;;25.10;38.70;;;;;;5072234;28;20040;-53
2022/02/15 02:00:12;;;;;;;0.30;0.08;;;25.10;38.70;;;;;;5069155;28;20466;-52
2022/02/15 02:02:43;;;;;;;0.20;0.10;;;25.10;38.60;;;;;;5070811;28;20132;-50
2022/02/15 02:08:03;;;;;;;2.05;0.20;;;25.10;38.70;;;;;;5053237;28;20466;-56
2022/02/15 02:10:33;;;;;;;1.05;0.10;;;25.10;38.80;;;;;;5051235;28;20495;-53
2022/02/15 02:13:04;;;;;;;0.65;0.10;;;25.00;39.30;;;;;;5049068;28;20362;-53
2022/02/15 02:15:32;;;;;;;0.52;0.17;;;24.80;39.80;;;;;;5054050;28;20059;-50
2022/02/15 02:18:20;;;;;;;0.82;0.10;;;24.60;40.40;;;;;;5050500;28;20048;-48
2022/02/15 02:20:49;;;;;;;1.50;0.28;;;24.30;40.90;;;;;;5060580;28;20037;-50
2022/02/15 02:23:20;;;;;;;0.30;0.00;;;24.10;41.20;;;;;;5060975;28;20417;-49
2022/02/15 02:25:49;;;;;;;0.38;0.10;;;24.00;41.70;;;;;;5054431;28;20044;-48
2022/02/15 02:28:19;;;;;;;0.40;0.10;;;23.80;41.90;;;;;;5054684;28;20484;-52
2022/02/15 02:30:47;;;;;;;0.73;0.03;;;23.70;42.20;;;;;;5073845;28;20135;-51
2022/02/15 02:33:14;;;;;;;0.57;0.10;;;23.50;42.40;;;;;;5059823;28;20048;-51
2022/02/15 02:35:41;;;;;;;0.20;0.10;;;23.40;42.60;;;;;;5074997;28;20076;-54
2022/02/15 02:38:08;;;;;;;1.40;0.00;;;23.30;42.80;;;;;;5069952;28;20093;-52
2022/02/15 02:40:37;;;;;;;0.15;0.10;;;23.20;43.60;;;;;;5072644;28;20607;-49
2022/02/15 02:43:06;;;;;;;0.45;0.10;;;23.10;43.20;;;;;;5063869;28;20186;-50
2022/02/15 02:45:33;;;;;;;0.30;0.10;;;22.90;43.40;;;;;;5069241;28;20040;-53
2022/02/15 02:48:01;;;;;;;0.77;0.10;;;22.80;43.50;;;;;;5057798;28;20042;-51
2022/02/15 02:50:30;;;;;;;0.20;0.10;;;22.80;43.80;;;;;;5065949;28;20098;-53
2022/02/15 02:52:59;;;;;;;0.20;0.05;;;22.60;43.90;;;;;;5054533;28;20127;-52
2022/02/15 02:55:29;;;;;;;0.50;0.10;;;22.60;44.10;;;;;;5058620;28;20052;-52
2022/02/15 02:57:58;;;;;;;0.52;0.20;;;22.50;44.30;;;;;;5055846;28;20500;-53
2022/02/15 03:00:26;;;;;;;0.30;0.00;;;22.40;44.40;;;;;;5050340;28;20048;-53
2022/02/15 03:03:08;;;;;;;0.25;0.25;;;22.30;44.60;;;;;;5052088;28;20052;-51
2022/02/15 03:05:38;;;;;;;0.43;0.10;;;22.20;44.70;;;;;;5068177;28;20118;-54
2022/02/15 03:08:07;;;;;;;0.82;0.10;;;22.20;44.90;;;;;;5052795;28;20076;-54
2022/02/15 03:10:34;;;;;;;1.23;0.10;;;22.10;45.00;;;;;;5053933;28;20067;-53
2022/02/15 03:13:04;;;;;;;1.25;0.40;;;22.00;45.20;;;;;;5054489;28;20037;-52
2022/02/15 03:15:32;;;;;;;0.15;0.10;;;21.90;45.30;;;;;;5052915;28;20044;-51
2022/02/15 03:18:02;;;;;;;0.10;0.10;;;21.90;45.40;;;;;;5053798;28;20047;-49
2022/02/15 03:20:30;;;;;;;0.45;0.45;;;21.80;45.50;;;;;;5052648;28;20659;-50
2022/02/15 03:22:57;;;;;;;4.10;0.10;;;21.80;45.60;;;;;;5074718;28;20040;-50
2022/02/15 03:25:25;;;;;;;1.23;0.10;;;21.70;45.70;;;;;;5062867;28;20134;-51
2022/02/15 03:27:53;;;;;;;0.52;0.10;;;21.60;45.80;;;;;;5063727;28;20082;-53
2022/02/15 03:30:22;;;;;;;0.63;0.10;;;21.50;45.90;;;;;;5048378;28;20041;-51
2022/02/15 03:32:50;;;;;;;0.82;0.32;;;21.50;46.00;;;;;;5066046;28;20054;-53
2022/02/15 03:35:19;;;;;;;1.55;0.10;;;21.40;46.00;;;;;;5072116;28;20048;-52
2022/02/15 03:37:54;;;;;;;0.57;0.10;;;21.40;46.10;;;;;;5060294;28;20046;-52
2022/02/15 03:40:21;;;;;;;0.55;0.10;;;21.30;46.10;;;;;;5048915;28;20044;-51
2022/02/15 03:43:06;;;;;;;0.75;0.10;;;21.30;46.20;;;;;;5053061;28;20114;-53
2022/02/15 03:45:36;;;;;;;0.20;0.00;;;21.20;46.30;;;;;;5051724;28;20051;-51
2022/02/15 03:48:10;;;;;;;0.20;0.10;;;21.20;46.40;;;;;;5054590;28;20517;-55
2022/02/15 03:50:38;;;;;;;1.17;0.57;;;21.10;46.40;;;;;;5062888;28;20093;-55
2022/02/15 03:53:07;;;;;;;0.20;0.00;;;21.10;46.50;;;;;;5053431;28;20075;-55
2022/02/15 03:55:35;;;;;;;0.65;0.00;;;21.00;46.50;;;;;;5058220;28;20123;-54
2022/02/15 03:58:04;;;;;;;0.43;0.10;;;21.00;46.70;;;;;;5048911;28;20139;-54
2022/02/15 04:00:31;;;;;;;0.55;0.10;;;21.00;47.00;;;;;;5047984;28;20097;-53
2022/02/15 04:03:16;;;;;;;1.63;0.10;;;21.00;46.80;;;;;;5050508;28;20059;-51
2022/02/15 04:05:45;;;;;;;0.15;0.03;;;20.90;46.80;;;;;;5065144;28;20035;-52
2022/02/15 04:08:12;;;;;;;0.30;0.00;;;20.80;46.90;;;;;;5058505;28;20048;-53
2022/02/15 04:10:40;;;;;;;0.95;0.10;;;20.80;47.00;;;;;;5050633;28;20036;-52
2022/02/15 04:13:09;;;;;;;0.45;0.10;;;20.80;47.00;;;;;;5060734;28;20059;-51
2022/02/15 04:15:36;;;;;;;1.88;0.10;;;20.80;47.10;;;;;;5054673;28;20042;-51
2022/02/15 04:18:04;;;;;;;0.70;0.10;;;20.70;47.10;;;;;;5069674;28;20524;-50
2022/02/15 04:20:32;;;;;;;1.55;0.10;;;20.70;47.10;;;;;;5054752;28;20037;-53
2022/02/15 04:23:00;;;;;;;0.15;0.00;;;20.70;47.20;;;;;;5055587;28;20130;-52
2022/02/15 04:25:27;;;;;;;0.63;0.43;;;20.60;47.20;;;;;;5050701;28;20045;-52
2022/02/15 04:27:58;;;;;;;0.63;0.00;;;20.60;47.30;;;;;;5065859;28;20094;-52
2022/02/15 04:30:28;;;;;;;0.10;0.10;;;20.60;47.40;;;;;;5047154;28;20045;-50
2022/02/15 04:32:56;;;;;;;0.32;0.00;;;20.50;47.40;;;;;;5071657;28;20127;-53
2022/02/15 04:35:24;;;;;;;0.40;0.00;;;20.50;47.40;;;;;;5056413;28;20499;-52
2022/02/15 04:37:56;;;;;;;0.20;0.00;;;20.50;47.50;;;;;;5053630;28;20036;-50
2022/02/15 04:40:23;;;;;;;0.32;0.10;;;20.50;47.60;;;;;;5050886;28;20048;-53
2022/02/15 04:42:51;;;;;;;1.52;0.00;;;20.40;47.60;;;;;;5054260;28;20394;-53
2022/02/15 04:45:18;;;;;;;1.55;0.00;;;20.40;47.60;;;;;;5030411;28;20080;-52
2022/02/15 04:47:50;;;;;;;0.38;0.30;;;20.40;47.70;;;;;;5074604;28;20467;-55
2022/02/15 04:50:19;;;;;;;0.30;0.05;;;20.40;47.70;;;;;;5057982;28;20059;-52
2022/02/15 04:52:46;;;;;;;0.52;0.00;;;20.40;47.80;;;;;;5062151;28;20097;-52
2022/02/15 04:55:24;;;;;;;3.00;0.00;;;20.30;47.70;;;;;;5065785;28;20060;-52
2022/02/15 04:57:58;;;;;;;1.13;0.10;;;20.30;47.70;;;;;;5052879;28;20432;-52
2022/02/15 05:00:26;;;;;;;2.28;0.10;;;20.30;47.80;;;;;;5067266;28;20098;-53
2022/02/15 05:03:22;;;;;;;2.25;0.00;;;20.30;47.80;;;;;;5052893;28;20062;-54
2022/02/15 05:05:55;;;;;;;0.20;0.10;;;20.20;47.80;;;;;;5064722;28;20172;-53
2022/02/15 05:08:24;;;;;;;0.57;0.20;;;20.20;47.90;;;;;;5051870;28;20037;-56
2022/02/15 05:10:59;;;;;;;0.38;0.03;;;20.20;47.90;;;;;;5060927;28;20136;-55
2022/02/15 05:13:33;;;;;;;0.50;0.00;;;20.20;47.90;;;;;;5058974;28;20102;-54
2022/02/15 05:16:10;;;;;;;1.38;0.05;;;20.10;47.80;;;;;;5051948;28;20114;-54
2022/02/15 05:18:47;;;;;;;0.57;0.10;;;20.10;47.80;;;;;;5050009;28;20063;-53
2022/02/15 05:21:20;;;;;;;0.68;0.00;;;20.10;47.80;;;;;;5056203;28;20102;-55
2022/02/15 05:23:52;;;;;;;7.97;0.20;;;20.10;47.80;;;;;;5074922;28;20694;-53
2022/02/15 05:26:23;;;;;;;0.77;0.20;;;20.00;47.80;;;;;;5058616;28;20631;-53
2022/02/15 05:28:58;;;;;;;1.40;0.10;;;20.00;47.80;;;;;;5057465;28;20042;-55
2022/02/15 05:31:29;;;;;;;0.75;0.20;;;20.00;47.80;;;;;;5058075;28;20041;-56
2022/02/15 05:33:56;;;;;;;0.38;0.13;;;20.00;47.90;;;;;;5054501;28;20036;-54
2022/02/15 05:36:23;;;;;;;0.60;0.10;;;20.00;47.90;;;;;;5053369;28;20068;-54
2022/02/15 05:38:51;;;;;;;0.35;0.10;;;20.00;48.00;;;;;;5050124;28;20056;-54
2022/02/15 05:41:22;;;;;;;0.50;0.10;;;19.90;47.90;;;;;;5061762;28;20544;-53
2022/02/15 05:43:49;;;;;;;1.00;0.10;;;19.90;47.90;;;;;;5057661;28;20042;-54
2022/02/15 05:46:19;;;;;;;10.30;0.10;;;19.90;47.90;;;;;;5072913;28;20121;-54
2022/02/15 05:48:53;;;;;;;0.13;0.13;;;19.90;48.10;;;;;;5066856;28;20048;-54
2022/02/15 05:51:40;;;;;;;1.80;0.10;;;19.90;48.10;;;;;;5084283;28;20059;-54
2022/02/15 05:54:21;;;;;;;2.05;0.10;;;19.90;48.10;;;;;;5068109;28;20043;-50
2022/02/15 05:56:52;;;;;;;1.95;0.10;;;19.80;48.70;;;;;;5068785;28;20126;-51
2022/02/15 05:59:29;;;;;;;3.10;0.10;;;19.80;48.10;;;;;;5063774;28;20036;-52
2022/02/15 06:02:00;;;;;;;1.13;0.30;;;19.80;48.20;;;;;;5060712;28;20127;-53
2022/02/15 06:04:39;;;;;;;0.10;0.00;;;19.80;48.30;;;;;;5058190;28;20141;-53
2022/02/15 06:07:13;;;;;;;2.50;0.10;;;19.80;48.40;;;;;;5058679;28;20121;-48
2022/02/15 06:09:41;;;;;;;0.52;0.32;;;19.80;48.60;;;;;;5070912;28;20155;-49
2022/02/15 06:12:11;;;;;;;0.88;0.00;;;19.80;48.70;;;;;;5070916;28;20036;-54
2022/02/15 06:14:44;;;;;;;2.65;0.10;;;19.80;48.90;;;;;;5064561;28;20121;-55
2022/02/15 06:17:15;;;;;;;0.40;0.20;;;19.80;48.80;;;;;;5061169;28;20508;-55
2022/02/15 06:19:48;;;;;;;0.55;0.20;;;19.70;48.80;;;;;;5065303;28;20044;-54
2022/02/15 06:22:17;;;;;;;5.47;0.10;;;19.70;48.80;;;;;;5074115;28;20496;-52
2022/02/15 06:24:45;;;;;;;2.60;0.10;;;19.70;48.70;;;;;;5082623;28;20029;-51
2022/02/15 06:27:23;;;;;;;0.10;0.00;;;19.70;48.80;;;;;;5058924;28;20504;-52
2022/02/15 06:30:00;;;;;;;4.15;1.05;;;19.70;48.80;;;;;;5062504;28;20149;-50
2022/02/15 06:32:49;;;;;;;0.80;0.80;;;19.70;48.80;;;;;;5062295;28;20389;-48
2022/02/15 06:35:17;;;;;;;1.98;0.10;;;19.70;48.90;;;;;;5080234;28;20036;-49
2022/02/15 06:37:51;;;;;;;1.33;0.10;;;19.70;48.90;;;;;;5058841;28;20040;-48
2022/02/15 06:40:21;;;;;;;1.95;0.13;;;19.70;48.90;;;;;;5060090;28;20075;-47
2022/02/15 06:42:53;;;;;;;1.70;0.00;;;19.70;48.90;;;;;;5076059;28;20044;-48
2022/02/15 06:45:21;;;;;;;1.85;0.00;;;19.70;48.90;;;;;;5067082;28;20044;-50
2022/02/15 06:47:49;;;;;;;0.85;0.32;;;19.60;48.90;;;;;;5064555;28;20047;-47
2022/02/15 06:50:17;;;;;;;5.00;0.10;;;19.60;49.60;;;;;;5061231;28;20070;-49
2022/02/15 06:52:47;;;;;;;1.98;0.20;;;19.70;49.00;;;;;;5078994;28;20040;-49
2022/02/15 06:55:21;;;;;;;3.25;0.13;;;19.70;49.10;;;;;;5066890;28;20051;-47
2022/02/15 06:57:48;;;;;;;2.28;0.30;;;19.80;49.00;;;;;;5059592;28;20040;-47
2022/02/15 07:00:19;;;;;;;2.47;0.10;;;19.80;48.80;;;;;;5063666;28;20051;-49
2022/02/15 07:02:47;;;;;;;3.35;0.10;;;19.80;48.70;;;;;;5038489;28;20066;-48
2022/02/15 07:05:17;;;;;;;4.55;0.60;;;19.80;48.60;;;;;;5056731;28;20044;-48
2022/02/15 07:07:51;;;;;;;7.95;0.65;;;19.80;48.60;;;;;;5060314;28;20064;-47
2022/02/15 07:10:22;;;;;;;1.42;0.38;;;19.90;51.00;;;;;;5051387;28;20044;-50
2022/02/15 07:12:55;;;;;;;6.10;0.28;;;19.90;52.20;;;;;;5065396;28;20126;-55
2022/02/15 07:15:27;;;;;;;2.95;0.35;;;20.00;53.00;;;;;;5067123;28;20420;-51
2022/02/15 07:18:02;;;;;;;5.22;0.20;;;20.00;53.50;;;;;;5059487;28;20044;-51
2022/02/15 07:20:59;;;;;;;10.10;0.47;;;20.00;53.40;;;;;;4996072;28;20841;-48
2022/02/15 07:23:26;;;;;;;11.77;0.40;;;20.00;53.40;;;;;;5000050;28;20106;-50
2022/02/15 07:26:12;;;;;;;4.53;0.43;;;20.00;53.30;;;;;;4992711;28;20077;-51
2022/02/15 07:28:52;;;;;;;6.50;0.20;;;20.00;53.20;;;;;;4985945;28;20053;-49
2022/02/15 07:31:21;;;;;;;3.22;0.70;;;20.00;53.20;;;;;;4981887;28;20061;-50
2022/02/15 07:33:53;;;;;;;3.22;0.10;;;20.10;53.30;;;;;;4982020;28;20138;-47
2022/02/15 07:36:21;;;;;;;5.25;0.63;;;20.00;53.10;;;;;;4983972;28;20064;-48
2022/02/15 07:38:48;;;;;;;2.60;0.57;;;20.00;53.10;;;;;;5004397;28;20062;-49
2022/02/15 07:41:16;;;;;;;4.97;0.43;;;20.00;53.00;;;;;;4985741;28;20051;-53
2022/02/15 07:43:44;;;;;;;3.45;0.43;;;20.00;53.00;;;;;;4997512;28;20046;-48
2022/02/15 07:46:17;;;;;;;3.53;0.40;;;20.00;53.00;;;;;;4980042;28;20054;-50
2022/02/15 07:48:47;;;;;;;2.22;0.10;;;20.00;52.90;;;;;;4974633;28;20428;-49
2022/02/15 07:51:14;;;;;;;6.30;0.28;;;20.00;52.90;;;;;;4992253;28;20537;-48
2022/02/15 07:53:41;;;;;;;3.97;0.10;;;20.00;52.80;;;;;;5002208;28;20148;-52
2022/02/15 07:56:09;;;;;;;2.42;0.10;;;20.00;52.80;;;;;;5002079;28;20519;-48
2022/02/15 07:58:36;;;;;;;0.10;0.10;;;20.00;52.70;;;;;;5072005;28;20047;-50
2022/02/15 08:01:04;;;;;;;1.65;0.10;;;20.00;52.70;;;;;;5068372;28;20060;-49
2022/02/15 08:03:32;;;;;;;2.17;0.10;;;20.00;52.60;;;;;;5067291;28;20095;-51
2022/02/15 08:06:01;;;;;;;2.65;0.13;;;20.00;52.50;;;;;;5060982;28;20047;-48
2022/02/15 08:08:29;;;;;;;2.42;0.10;;;20.00;52.30;;;;;;5050499;28;20394;-50
2022/02/15 08:10:57;;;;;;;2.10;0.00;;;20.00;52.20;;;;;;5072772;28;20044;-49
2022/02/15 08:13:33;;;;;;;1.70;0.20;;;20.00;52.10;;;;;;5071575;28;20715;-47
2022/02/15 08:16:01;;;;;;;1.08;0.30;;;20.00;52.00;;;;;;5068845;28;20044;-49
2022/02/15 08:18:28;;;;;;;2.28;0.30;;;20.00;51.90;;;;;;5073750;28;20045;-47
2022/02/15 08:20:56;;;;;;;0.95;0.10;;;20.00;51.80;;;;;;5048875;28;20048;-49
2022/02/15 08:23:25;;;;;;;1.17;0.20;;;20.00;51.70;;;;;;5073265;28;20713;-51
2022/02/15 08:25:54;;;;;;;1.33;0.47;;;20.00;51.50;;;;;;5056190;28;20056;-49
2022/02/15 08:28:21;;;;;;;2.15;0.10;;;20.00;51.40;;;;;;5070980;28;20868;-48
2022/02/15 08:30:48;;;;;;;0.65;0.15;;;20.00;51.30;;;;;;5074023;28;20378;-48
2022/02/15 08:33:16;;;;;;;4.35;0.30;;;20.00;51.80;;;;;;5074128;28;20045;-49
2022/02/15 08:35:43;;;;;;;0.20;0.10;;;20.00;51.10;;;;;;5059154;28;20124;-49
2022/02/15 08:38:11;;;;;;;2.17;0.43;;;20.00;51.00;;;;;;5072903;28;20475;-47
2022/02/15 08:40:39;;;;;;;2.35;0.30;;;19.90;50.80;;;;;;5075005;28;20043;-49
2022/02/15 08:43:07;;;;;;;1.30;0.10;;;20.00;50.70;;;;;;5072536;28;20056;-48
2022/02/15 08:45:34;;;;;;;1.42;0.28;;;19.90;50.50;;;;;;5076092;28;20607;-52
2022/02/15 08:48:01;;;;;;;1.23;0.10;;;19.90;50.40;;;;;;5074576;28;20051;-50
2022/02/15 08:50:28;;;;;;;1.73;0.10;;;20.00;50.40;;;;;;5076971;28;20052;-49
2022/02/15 08:52:55;;;;;;;1.52;0.10;;;19.90;50.10;;;;;;5071945;28;20102;-48
2022/02/15 08:55:22;;;;;;;3.65;0.80;;;20.00;50.10;;;;;;5072535;28;20040;-47
2022/02/15 08:57:51;;;;;;;1.02;0.20;;;19.90;49.90;;;;;;5069888;28;20521;-51
2022/02/15 09:00:18;;;;;;;1.02;0.20;;;19.90;49.80;;;;;;5070700;28;20048;-47
2022/02/15 09:02:46;;;;;;;2.53;0.20;;;20.00;49.80;;;;;;5074031;28;20114;-49
2022/02/15 09:05:13;;;;;;;0.85;0.17;;;19.90;49.60;;;;;;5083144;28;20066;-48
2022/02/15 09:07:40;;;;;;;1.38;0.25;;;19.90;49.50;;;;;;5074329;28;20526;-48
2022/02/15 09:10:08;;;;;;;1.85;0.30;;;19.90;49.40;;;;;;5072776;28;20973;-52
2022/02/15 09:12:35;;;;;;;2.63;0.15;;;19.90;49.30;;;;;;5077339;28;20139;-47
2022/02/15 09:15:06;;;;;;;1.33;0.10;;;19.90;49.30;;;;;;5072011;28;20048;-49
2022/02/15 09:17:37;;;;;;;0.82;0.20;;;19.90;49.20;;;;;;5073966;28;20060;-48
2022/02/15 09:20:05;;;;;;;1.23;0.25;;;19.90;49.10;;;;;;5073384;28;20043;-49
2022/02/15 09:22:33;;;;;;;2.33;0.10;;;19.90;49.00;;;;;;5073632;28;20118;-47
2022/02/15 09:25:00;;;;;;;1.63;0.20;;;19.90;48.90;;;;;;5070649;28;20046;-48
2022/02/15 09:27:27;;;;;;;2.45;0.15;;;19.90;48.80;;;;;;5075819;28;20048;-47
2022/02/15 09:29:55;;;;;;;2.65;0.10;;;19.90;48.80;;;;;;5076136;28;20421;-49
2022/02/15 09:32:23;;;;;;;1.08;0.10;;;19.90;48.60;;;;;;5070191;28;20063;-47
2022/02/15 09:34:50;;;;;;;1.60;0.10;;;19.90;48.60;;;;;;5056820;28;20040;-48
2022/02/15 09:37:18;;;;;;;1.25;0.73;;;19.90;48.50;;;;;;5076204;28;20667;-47
2022/02/15 09:39:48;;;;;;;0.80;0.10;;;20.00;48.50;;;;;;5068883;28;20048;-53
2022/02/15 09:42:15;;;;;;;2.90;0.57;;;20.00;48.40;;;;;;5086673;28;20052;-49
2022/02/15 09:44:42;;;;;;;2.88;0.20;;;19.90;48.90;;;;;;5072080;28;20040;-51
2022/02/15 09:47:13;;;;;;;0.65;0.10;;;20.00;48.30;;;;;;5069054;28;20231;-50
2022/02/15 09:49:50;;;;;;;0.73;0.10;;;20.00;48.20;;;;;;5069681;28;20052;-50
2022/02/15 09:52:19;;;;;;;1.42;0.10;;;20.00;48.10;;;;;;5071431;28;20048;-49
2022/02/15 09:54:50;;;;;;;0.57;0.15;;;20.00;48.00;;;;;;5067991;28;20041;-49
2022/02/15 09:57:18;;;;;;;5.45;0.38;;;20.00;48.00;;;;;;5058425;28;20040;-48
2022/02/15 09:59:47;;;;;;;1.90;0.20;;;20.00;47.90;;;;;;5069242;28;20068;-47
2022/02/15 10:02:18;;;;;;;2.97;0.10;;;20.00;47.80;;;;;;5062416;28;20064;-47
2022/02/15 10:04:51;;;;;;;2.30;0.10;;;20.00;47.70;;;;;;5078580;28;20063;-48
2022/02/15 10:07:19;;;;;;;4.57;0.10;;;20.10;47.70;;;;;;5071235;28;20032;-48
2022/02/15 10:09:49;;;;;;;2.08;0.10;;;20.10;47.60;;;;;;5068432;28;20041;-49
2022/02/15 10:12:17;;;;;;;0.70;0.10;;;20.10;47.50;;;;;;5075786;28;20534;-50
2022/02/15 10:14:46;;;;;;;5.43;0.20;;;20.10;47.50;;;;;;5073810;28;20532;-50
2022/02/15 10:17:17;;;;;;;1.60;0.10;;;20.10;47.40;;;;;;5081077;28;20122;-50
2022/02/15 10:19:47;;;;;;;2.05;0.25;;;20.10;47.30;;;;;;5074080;28;20044;-48
2022/02/15 10:22:17;;;;;;;2.53;0.15;;;20.10;47.20;;;;;;5071015;28;20043;-50
2022/02/15 10:24:51;;;;;;;0.52;0.10;;;20.20;47.20;;;;;;5066321;28;20057;-50
2022/02/15 10:27:19;;;;;;;1.85;0.10;;;20.20;47.10;;;;;;5067133;28;20570;-51
2022/02/15 10:29:46;;;;;;;0.60;0.10;;;20.20;47.00;;;;;;5084245;28;20040;-50
2022/02/15 10:32:17;;;;;;;1.05;0.10;;;20.20;46.90;;;;;;5069580;28;20079;-49
2022/02/15 10:34:47;;;;;;;0.20;0.05;;;20.20;46.90;;;;;;5051870;28;20143;-47
2022/02/15 10:37:15;;;;;;;2.60;0.60;;;20.20;46.80;;;;;;5074983;28;20064;-47
2022/02/15 10:39:44;;;;;;;0.63;0.10;;;20.20;46.80;;;;;;5066174;28;20032;-47
2022/02/15 10:42:13;;;;;;;2.50;0.45;;;20.20;46.70;;;;;;5077675;28;20047;-47
2022/02/15 10:44:58;;;;;;;0.73;0.10;;;20.20;46.60;;;;;;5071543;28;20040;-47
2022/02/15 10:47:28;;;;;;;1.40;0.10;;;20.20;46.60;;;;;;5077797;28;20563;-48
2022/02/15 10:49:59;;;;;;;0.75;0.10;;;20.20;46.60;;;;;;5072425;28;20102;-49
2022/02/15 10:52:27;;;;;;;4.50;0.32;;;20.20;46.60;;;;;;5078184;28;20503;-47
2022/02/15 10:54:55;;;;;;;0.10;0.10;;;20.20;46.50;;;;;;5065893;28;20041;-48
2022/02/15 10:57:23;;;;;;;1.15;0.10;;;20.20;46.40;;;;;;5074519;28;20052;-48
2022/02/15 10:59:53;;;;;;;1.40;0.10;;;20.20;46.40;;;;;;5065085;28;20040;-51
2022/02/15 11:02:23;;;;;;;1.90;0.10;;;20.30;46.40;;;;;;5072869;28;20055;-48
2022/02/15 11:04:51;;;;;;;1.33;0.20;;;20.30;46.20;;;;;;5071198;28;20611;-48
2022/02/15 11:07:23;;;;;;;3.63;0.20;;;20.30;46.20;;;;;;5073528;28;20036;-47
2022/02/15 11:10:08;;;;;;;1.35;0.10;;;20.40;46.00;;;;;;5065329;28;20468;-47
2022/02/15 11:12:44;;;;;;;3.15;0.20;;;20.50;46.00;;;;;;5072091;28;20123;-49
2022/02/15 11:15:13;;;;;;;1.13;0.10;;;20.50;45.90;;;;;;5077001;28;20151;-51
2022/02/15 11:17:48;;;;;;;1.10;0.10;;;20.50;45.80;;;;;;5073704;28;20131;-49
2022/02/15 11:20:17;;;;;;;1.58;0.00;;;20.50;45.70;;;;;;5077118;28;20140;-49
2022/02/15 11:22:48;;;;;;;1.00;0.10;;;20.60;45.70;;;;;;5080535;28;20511;-52
2022/02/15 11:25:15;;;;;;;0.20;0.10;;;20.60;45.60;;;;;;5052011;28;20040;-51
2022/02/15 11:27:50;;;;;;;0.65;0.47;;;20.60;45.60;;;;;;5066901;28;20047;-48
2022/02/15 11:30:18;;;;;;;0.40;0.20;;;20.70;45.50;;;;;;5065859;28;20136;-50
2022/02/15 11:32:47;;;;;;;0.93;0.08;;;20.70;45.50;;;;;;5069558;28;20040;-49
2022/02/15 11:35:18;;;;;;;0.40;0.25;;;20.80;45.40;;;;;;5074198;28;20044;-54
2022/02/15 11:37:47;;;;;;;3.20;0.10;;;20.80;45.30;;;;;;5070097;28;20036;-50
2022/02/15 11:40:16;;;;;;;1.15;0.17;;;20.80;45.20;;;;;;5068972;28;20037;-53
2022/02/15 11:42:48;;;;;;;1.23;0.10;;;20.80;45.10;;;;;;5069943;28;20040;-48
2022/02/15 11:45:18;;;;;;;0.60;0.10;;;20.90;45.10;;;;;;5072055;28;20135;-48
2022/02/15 11:47:46;;;;;;;2.05;0.40;;;20.90;45.00;;;;;;5071353;28;20048;-50
2022/02/15 11:50:16;;;;;;;0.47;0.10;;;20.90;44.90;;;;;;5072340;28;20041;-49
2022/02/15 11:52:45;;;;;;;0.80;0.10;;;20.90;44.80;;;;;;5077591;28;20040;-52
2022/02/15 11:55:17;;;;;;;1.85;0.10;;;21.00;44.80;;;;;;5070253;28;20131;-50
2022/02/15 11:57:45;;;;;;;1.08;0.10;;;21.00;44.70;;;;;;5056547;28;20140;-50
2022/02/15 12:00:14;;;;;;;0.57;0.00;;;21.10;44.70;;;;;;5070767;28;20056;-47
2022/02/15 12:02:55;;;;;;;0.40;0.10;;;21.10;44.60;;;;;;5055973;28;20053;-48
2022/02/15 12:05:27;;;;;;;0.68;0.10;;;21.20;44.50;;;;;;5082119;28;20044;-50
2022/02/15 12:07:55;;;;;;;2.45;0.10;;;21.20;44.50;;;;;;5082163;28;20036;-49
2022/02/15 12:10:25;;;;;;;0.85;0.10;;;21.20;44.30;;;;;;5072758;28;20451;-51
2022/02/15 12:12:53;;;;;;;0.25;0.10;;;21.20;44.20;;;;;;5072048;28;20151;-51
2022/02/15 12:15:21;;;;;;;5.45;0.40;;;21.30;44.20;;;;;;5073005;28;20102;-48
2022/02/15 12:17:49;;;;;;;0.45;0.10;;;21.30;44.10;;;;;;5075102;28;20040;-48
2022/02/15 12:20:19;;;;;;;0.65;0.10;;;21.30;44.00;;;;;;5075211;28;20040;-48
2022/02/15 12:22:50;;;;;;;2.70;0.70;;;21.40;44.00;;;;;;5080339;28;20038;-51
2022/02/15 12:25:48;;;;;;;0.85;0.00;;;21.40;43.90;;;;;;5067566;28;20484;-50
2022/02/15 12:28:22;;;;;;;1.75;0.10;;;21.40;43.70;;;;;;5073066;28;20052;-49
2022/02/15 12:30:50;;;;;;;0.35;0.10;;;21.40;43.60;;;;;;5069639;28;20032;-50
2022/02/15 12:33:19;;;;;;;0.68;0.20;;;21.40;43.60;;;;;;5086929;28;20040;-50
2022/02/15 12:35:54;;;;;;;0.55;0.10;;;21.40;43.50;;;;;;5076451;28;20048;-51
2022/02/15 12:38:21;;;;;;;1.45;0.30;;;21.40;43.30;;;;;;5080636;28;20600;-51
2022/02/15 12:40:51;;;;;;;1.50;0.10;;;21.40;43.30;;;;;;5081005;28;20036;-50
2022/02/15 12:43:29;;;;;;;0.70;0.10;;;21.40;43.30;;;;;;5083320;28;20086;-50
2022/02/15 12:45:56;;;;;;;0.75;0.28;;;21.40;43.30;;;;;;5069250;28;20420;-51
2022/02/15 12:48:24;;;;;;;0.63;0.10;;;21.40;43.30;;;;;;5074292;28;20040;-53
2022/02/15 12:50:51;;;;;;;0.85;0.10;;;21.30;43.20;;;;;;5075755;28;20040;-51
2022/02/15 12:53:18;;;;;;;0.55;0.10;;;21.30;43.20;;;;;;5072965;28;20432;-55
2022/02/15 12:55:51;;;;;;;0.13;0.00;;;21.30;43.20;;;;;;5072209;28;20036;-52
2022/02/15 12:58:20;;;;;;;0.80;0.10;;;21.30;43.10;;;;;;5071935;28;20046;-49
2022/02/15 13:00:48;;;;;;;3.25;0.30;;;21.30;43.20;;;;;;5067885;28;20082;-52
2022/02/15 13:03:19;;;;;;;0.30;0.10;;;21.30;43.10;;;;;;5067593;28;20155;-51